sensor_id;sensor_type;location;lat;lon;timestamp;P1;durP1;ratioP1;P2;durP2;ratioP2
42964;SDS011;28604;51.204;22.552;2023-07-28T00:02:26;2.33;;;2.10;;
42964;SDS011;28604;51.204;22.552;2023-07-28T00:04:51;4.70;;;2.20;;
42964;SDS011;28604;51.204;22.552;2023-07-28T00:07:17;2.90;;;2.30;;
42964;SDS011;28604;51.204;22.552;2023-07-28T00:09:43;14.68;;;2.33;;
42964;SDS011;28604;51.204;22.552;2023-07-28T00:12:09;3.05;;;2.22;;
42964;SDS011;28604;51.204;22.552;2023-07-28T00:14:35;3.42;;;2.10;;
42964;SDS011;28604;51.204;22.552;2023-07-28T00:17:01;6.78;;;2.55;;
42964;SDS011;28604;51.204;22.552;2023-07-28T00:19:27;2.35;;;1.70;;
42964;SDS011;28604;51.204;22.552;2023-07-28T00:21:53;5.75;;;1.50;;
42964;SDS011;28604;51.204;22.552;2023-07-28T00:24:21;3.10;;;1.90;;
42964;SDS011;28604;51.204;22.552;2023-07-28T00:26:47;2.30;;;2.05;;
42964;SDS011;28604;51.204;22.552;2023-07-28T00:29:13;3.47;;;1.95;;
42964;SDS011;28604;51.204;22.552;2023-07-28T00:31:39;2.60;;;2.20;;
42964;SDS011;28604;51.204;22.552;2023-07-28T00:34:05;4.25;;;1.73;;
42964;SDS011;28604;51.204;22.552;2023-07-28T00:36:31;2.28;;;2.17;;
42964;SDS011;28604;51.204;22.552;2023-07-28T00:38:58;6.20;;;2.38;;
42964;SDS011;28604;51.204;22.552;2023-07-28T00:41:24;2.60;;;2.30;;
42964;SDS011;28604;51.204;22.552;2023-07-28T00:43:50;3.28;;;2.10;;
42964;SDS011;28604;51.204;22.552;2023-07-28T00:46:16;5.05;;;2.03;;
42964;SDS011;28604;51.204;22.552;2023-07-28T00:48:42;2.15;;;2.05;;
42964;SDS011;28604;51.204;22.552;2023-07-28T00:51:10;10.65;;;2.65;;
42964;SDS011;28604;51.204;22.552;2023-07-28T00:53:37;3.15;;;2.00;;
42964;SDS011;28604;51.204;22.552;2023-07-28T00:56:04;6.50;;;1.63;;
42964;SDS011;28604;51.204;22.552;2023-07-28T00:58:30;4.20;;;2.47;;
42964;SDS011;28604;51.204;22.552;2023-07-28T01:00:57;5.75;;;2.63;;
42964;SDS011;28604;51.204;22.552;2023-07-28T01:03:23;4.35;;;2.33;;
42964;SDS011;28604;51.204;22.552;2023-07-28T01:05:55;6.40;;;2.10;;
42964;SDS011;28604;51.204;22.552;2023-07-28T01:08:35;7.00;;;2.60;;
42964;SDS011;28604;51.204;22.552;2023-07-28T01:11:13;2.88;;;2.30;;
42964;SDS011;28604;51.204;22.552;2023-07-28T01:13:40;5.47;;;2.22;;
42964;SDS011;28604;51.204;22.552;2023-07-28T01:16:07;3.00;;;2.80;;
42964;SDS011;28604;51.204;22.552;2023-07-28T01:18:33;3.13;;;2.55;;
42964;SDS011;28604;51.204;22.552;2023-07-28T01:21:01;3.83;;;3.00;;
42964;SDS011;28604;51.204;22.552;2023-07-28T01:23:41;2.53;;;2.30;;
42964;SDS011;28604;51.204;22.552;2023-07-28T01:26:17;5.82;;;2.63;;
42964;SDS011;28604;51.204;22.552;2023-07-28T01:28:57;8.27;;;3.63;;
42964;SDS011;28604;51.204;22.552;2023-07-28T01:31:25;3.55;;;3.25;;
42964;SDS011;28604;51.204;22.552;2023-07-28T01:33:51;5.80;;;3.30;;
42964;SDS011;28604;51.204;22.552;2023-07-28T01:36:17;10.65;;;3.90;;
42964;SDS011;28604;51.204;22.552;2023-07-28T01:38:43;7.22;;;3.03;;
42964;SDS011;28604;51.204;22.552;2023-07-28T01:41:09;15.23;;;3.80;;
42964;SDS011;28604;51.204;22.552;2023-07-28T01:43:35;6.15;;;3.75;;
42964;SDS011;28604;51.204;22.552;2023-07-28T01:46:01;6.75;;;4.07;;
42964;SDS011;28604;51.204;22.552;2023-07-28T01:48:26;11.00;;;4.40;;
42964;SDS011;28604;51.204;22.552;2023-07-28T01:50:52;4.30;;;2.95;;
42964;SDS011;28604;51.204;22.552;2023-07-28T01:53:18;9.15;;;4.20;;
42964;SDS011;28604;51.204;22.552;2023-07-28T01:55:44;6.18;;;3.53;;
42964;SDS011;28604;51.204;22.552;2023-07-28T01:58:11;6.07;;;3.17;;
42964;SDS011;28604;51.204;22.552;2023-07-28T02:00:37;7.35;;;4.22;;
42964;SDS011;28604;51.204;22.552;2023-07-28T02:03:03;10.13;;;4.32;;
42964;SDS011;28604;51.204;22.552;2023-07-28T02:05:31;7.93;;;4.47;;
42964;SDS011;28604;51.204;22.552;2023-07-28T02:07:57;6.65;;;4.00;;
42964;SDS011;28604;51.204;22.552;2023-07-28T02:10:25;12.25;;;4.72;;
42964;SDS011;28604;51.204;22.552;2023-07-28T02:12:52;11.25;;;4.25;;
42964;SDS011;28604;51.204;22.552;2023-07-28T02:15:18;7.95;;;4.60;;
42964;SDS011;28604;51.204;22.552;2023-07-28T02:17:44;12.10;;;5.50;;
42964;SDS011;28604;51.204;22.552;2023-07-28T02:20:10;9.45;;;4.85;;
42964;SDS011;28604;51.204;22.552;2023-07-28T02:22:41;9.38;;;4.40;;
42964;SDS011;28604;51.204;22.552;2023-07-28T02:25:09;11.63;;;5.35;;
42964;SDS011;28604;51.204;22.552;2023-07-28T02:27:35;10.18;;;4.97;;
42964;SDS011;28604;51.204;22.552;2023-07-28T02:30:02;8.40;;;4.93;;
42964;SDS011;28604;51.204;22.552;2023-07-28T02:32:29;9.15;;;4.38;;
42964;SDS011;28604;51.204;22.552;2023-07-28T02:34:56;12.77;;;5.45;;
42964;SDS011;28604;51.204;22.552;2023-07-28T02:37:21;7.82;;;4.40;;
42964;SDS011;28604;51.204;22.552;2023-07-28T02:39:47;9.02;;;5.30;;
42964;SDS011;28604;51.204;22.552;2023-07-28T02:42:14;10.75;;;4.65;;
42964;SDS011;28604;51.204;22.552;2023-07-28T02:44:40;10.77;;;4.68;;
42964;SDS011;28604;51.204;22.552;2023-07-28T02:47:06;9.07;;;4.68;;
42964;SDS011;28604;51.204;22.552;2023-07-28T02:49:34;7.82;;;3.90;;
42964;SDS011;28604;51.204;22.552;2023-07-28T02:52:00;12.70;;;4.13;;
42964;SDS011;28604;51.204;22.552;2023-07-28T02:54:26;14.63;;;3.95;;
42964;SDS011;28604;51.204;22.552;2023-07-28T02:56:52;6.00;;;3.55;;
42964;SDS011;28604;51.204;22.552;2023-07-28T02:59:19;5.65;;;3.85;;
42964;SDS011;28604;51.204;22.552;2023-07-28T03:01:46;5.53;;;3.05;;
42964;SDS011;28604;51.204;22.552;2023-07-28T03:04:12;7.07;;;3.53;;
42964;SDS011;28604;51.204;22.552;2023-07-28T03:06:56;8.60;;;3.92;;
42964;SDS011;28604;51.204;22.552;2023-07-28T03:09:22;4.07;;;3.67;;
42964;SDS011;28604;51.204;22.552;2023-07-28T03:12:08;7.90;;;4.25;;
42964;SDS011;28604;51.204;22.552;2023-07-28T03:14:35;11.90;;;3.75;;
42964;SDS011;28604;51.204;22.552;2023-07-28T03:17:01;6.47;;;3.67;;
42964;SDS011;28604;51.204;22.552;2023-07-28T03:19:28;6.03;;;2.90;;
42964;SDS011;28604;51.204;22.552;2023-07-28T03:21:54;5.45;;;3.30;;
42964;SDS011;28604;51.204;22.552;2023-07-28T03:24:20;3.47;;;3.00;;
42964;SDS011;28604;51.204;22.552;2023-07-28T03:26:46;4.72;;;3.38;;
42964;SDS011;28604;51.204;22.552;2023-07-28T03:29:12;7.68;;;2.55;;
42964;SDS011;28604;51.204;22.552;2023-07-28T03:31:38;7.13;;;2.97;;
42964;SDS011;28604;51.204;22.552;2023-07-28T03:34:05;5.18;;;2.08;;
42964;SDS011;28604;51.204;22.552;2023-07-28T03:36:31;2.47;;;2.17;;
42964;SDS011;28604;51.204;22.552;2023-07-28T03:38:57;1.95;;;1.75;;
42964;SDS011;28604;51.204;22.552;2023-07-28T03:41:23;3.33;;;2.40;;
42964;SDS011;28604;51.204;22.552;2023-07-28T03:43:50;5.07;;;1.92;;
42964;SDS011;28604;51.204;22.552;2023-07-28T03:46:15;4.03;;;2.15;;
42964;SDS011;28604;51.204;22.552;2023-07-28T03:48:42;2.35;;;1.70;;
42964;SDS011;28604;51.204;22.552;2023-07-28T03:51:08;1.80;;;1.70;;
42964;SDS011;28604;51.204;22.552;2023-07-28T03:53:34;2.28;;;2.08;;
42964;SDS011;28604;51.204;22.552;2023-07-28T03:56:01;6.43;;;2.00;;
42964;SDS011;28604;51.204;22.552;2023-07-28T03:58:28;3.30;;;1.85;;
42964;SDS011;28604;51.204;22.552;2023-07-28T04:00:54;1.90;;;1.80;;
42964;SDS011;28604;51.204;22.552;2023-07-28T04:03:20;1.92;;;1.80;;
42964;SDS011;28604;51.204;22.552;2023-07-28T04:05:46;4.07;;;2.25;;
42964;SDS011;28604;51.204;22.552;2023-07-28T04:08:12;4.97;;;1.60;;
42964;SDS011;28604;51.204;22.552;2023-07-28T04:10:38;2.83;;;1.48;;
42964;SDS011;28604;51.204;22.552;2023-07-28T04:13:04;2.78;;;2.05;;
42964;SDS011;28604;51.204;22.552;2023-07-28T04:15:30;2.78;;;1.70;;
42964;SDS011;28604;51.204;22.552;2023-07-28T04:17:56;11.30;;;2.15;;
42964;SDS011;28604;51.204;22.552;2023-07-28T04:20:22;2.22;;;2.03;;
42964;SDS011;28604;51.204;22.552;2023-07-28T04:22:48;2.67;;;1.60;;
42964;SDS011;28604;51.204;22.552;2023-07-28T04:25:14;4.40;;;2.08;;
42964;SDS011;28604;51.204;22.552;2023-07-28T04:27:45;3.55;;;2.28;;
42964;SDS011;28604;51.204;22.552;2023-07-28T04:30:11;2.17;;;1.88;;
42964;SDS011;28604;51.204;22.552;2023-07-28T04:32:38;3.10;;;2.20;;
42964;SDS011;28604;51.204;22.552;2023-07-28T04:35:10;2.13;;;1.92;;
42964;SDS011;28604;51.204;22.552;2023-07-28T04:37:53;2.95;;;1.77;;
42964;SDS011;28604;51.204;22.552;2023-07-28T04:40:39;4.25;;;1.85;;
42964;SDS011;28604;51.204;22.552;2023-07-28T04:43:06;2.13;;;1.92;;
42964;SDS011;28604;51.204;22.552;2023-07-28T04:45:32;3.00;;;1.75;;
42964;SDS011;28604;51.204;22.552;2023-07-28T04:48:02;1.38;;;1.27;;
42964;SDS011;28604;51.204;22.552;2023-07-28T04:50:28;2.03;;;1.83;;
42964;SDS011;28604;51.204;22.552;2023-07-28T04:53:17;2.05;;;1.65;;
42964;SDS011;28604;51.204;22.552;2023-07-28T04:55:55;2.22;;;1.73;;
42964;SDS011;28604;51.204;22.552;2023-07-28T04:58:21;2.42;;;1.98;;
42964;SDS011;28604;51.204;22.552;2023-07-28T05:00:50;1.60;;;1.52;;
42964;SDS011;28604;51.204;22.552;2023-07-28T05:03:16;3.60;;;1.80;;
42964;SDS011;28604;51.204;22.552;2023-07-28T05:05:51;2.58;;;2.00;;
42964;SDS011;28604;51.204;22.552;2023-07-28T05:08:17;2.38;;;1.40;;
42964;SDS011;28604;51.204;22.552;2023-07-28T05:10:43;1.92;;;1.55;;
42964;SDS011;28604;51.204;22.552;2023-07-28T05:13:10;3.20;;;1.40;;
42964;SDS011;28604;51.204;22.552;2023-07-28T05:15:37;2.10;;;1.55;;
42964;SDS011;28604;51.204;22.552;2023-07-28T05:18:05;1.65;;;1.55;;
42964;SDS011;28604;51.204;22.552;2023-07-28T05:20:37;6.57;;;1.45;;
42964;SDS011;28604;51.204;22.552;2023-07-28T05:23:15;2.10;;;1.85;;
42964;SDS011;28604;51.204;22.552;2023-07-28T05:25:41;1.70;;;1.60;;
42964;SDS011;28604;51.204;22.552;2023-07-28T05:28:07;5.68;;;1.85;;
42964;SDS011;28604;51.204;22.552;2023-07-28T05:30:36;1.63;;;1.52;;
42964;SDS011;28604;51.204;22.552;2023-07-28T05:33:02;2.10;;;1.92;;
42964;SDS011;28604;51.204;22.552;2023-07-28T05:35:58;3.05;;;1.95;;
42964;SDS011;28604;51.204;22.552;2023-07-28T05:38:26;2.35;;;1.08;;
42964;SDS011;28604;51.204;22.552;2023-07-28T05:40:58;1.60;;;1.50;;
42964;SDS011;28604;51.204;22.552;2023-07-28T05:43:26;2.80;;;1.90;;
42964;SDS011;28604;51.204;22.552;2023-07-28T05:45:55;1.65;;;1.55;;
42964;SDS011;28604;51.204;22.552;2023-07-28T05:48:23;1.63;;;1.35;;
42964;SDS011;28604;51.204;22.552;2023-07-28T05:50:48;1.30;;;1.20;;
42964;SDS011;28604;51.204;22.552;2023-07-28T05:53:17;2.08;;;1.45;;
42964;SDS011;28604;51.204;22.552;2023-07-28T05:55:43;1.42;;;1.33;;
42964;SDS011;28604;51.204;22.552;2023-07-28T05:58:09;1.50;;;1.40;;
42964;SDS011;28604;51.204;22.552;2023-07-28T06:00:38;3.10;;;2.00;;
42964;SDS011;28604;51.204;22.552;2023-07-28T06:03:09;4.38;;;1.70;;
42964;SDS011;28604;51.204;22.552;2023-07-28T06:05:54;2.13;;;1.65;;
42964;SDS011;28604;51.204;22.552;2023-07-28T06:08:20;3.58;;;1.50;;
42964;SDS011;28604;51.204;22.552;2023-07-28T06:10:46;2.80;;;1.45;;
42964;SDS011;28604;51.204;22.552;2023-07-28T06:13:12;2.42;;;1.95;;
42964;SDS011;28604;51.204;22.552;2023-07-28T06:15:38;5.05;;;2.17;;
42964;SDS011;28604;51.204;22.552;2023-07-28T06:18:06;2.92;;;1.50;;
42964;SDS011;28604;51.204;22.552;2023-07-28T06:20:31;2.28;;;1.50;;
42964;SDS011;28604;51.204;22.552;2023-07-28T06:22:58;1.95;;;1.45;;
42964;SDS011;28604;51.204;22.552;2023-07-28T06:25:23;2.00;;;1.90;;
42964;SDS011;28604;51.204;22.552;2023-07-28T06:27:50;3.22;;;1.85;;
42964;SDS011;28604;51.204;22.552;2023-07-28T06:30:15;8.68;;;1.95;;
42964;SDS011;28604;51.204;22.552;2023-07-28T06:32:42;2.58;;;1.92;;
42964;SDS011;28604;51.204;22.552;2023-07-28T06:35:08;2.22;;;1.65;;
42964;SDS011;28604;51.204;22.552;2023-07-28T06:37:35;3.08;;;1.88;;
42964;SDS011;28604;51.204;22.552;2023-07-28T06:40:04;4.13;;;2.03;;
42964;SDS011;28604;51.204;22.552;2023-07-28T06:42:32;1.70;;;1.50;;
42964;SDS011;28604;51.204;22.552;2023-07-28T06:45:00;1.60;;;1.50;;
42964;SDS011;28604;51.204;22.552;2023-07-28T06:47:28;2.70;;;1.45;;
42964;SDS011;28604;51.204;22.552;2023-07-28T06:49:54;2.58;;;1.40;;
42964;SDS011;28604;51.204;22.552;2023-07-28T06:52:20;3.35;;;1.77;;
42964;SDS011;28604;51.204;22.552;2023-07-28T06:54:46;3.70;;;1.98;;
42964;SDS011;28604;51.204;22.552;2023-07-28T06:57:15;5.78;;;1.70;;
42964;SDS011;28604;51.204;22.552;2023-07-28T06:59:41;2.92;;;1.50;;
42964;SDS011;28604;51.204;22.552;2023-07-28T07:02:07;1.08;;;0.98;;
42964;SDS011;28604;51.204;22.552;2023-07-28T07:07:29;1.33;;;1.23;;
42964;SDS011;28604;51.204;22.552;2023-07-28T07:09:55;3.95;;;1.92;;
42964;SDS011;28604;51.204;22.552;2023-07-28T07:12:21;1.20;;;1.20;;
42964;SDS011;28604;51.204;22.552;2023-07-28T07:14:47;1.17;;;1.05;;
42964;SDS011;28604;51.204;22.552;2023-07-28T07:17:13;1.52;;;1.00;;
42964;SDS011;28604;51.204;22.552;2023-07-28T07:19:39;0.70;;;0.70;;
42964;SDS011;28604;51.204;22.552;2023-07-28T07:22:05;0.80;;;0.80;;
42964;SDS011;28604;51.204;22.552;2023-07-28T07:24:32;2.55;;;1.45;;
42964;SDS011;28604;51.204;22.552;2023-07-28T07:26:57;1.70;;;1.00;;
42964;SDS011;28604;51.204;22.552;2023-07-28T07:29:24;3.67;;;1.38;;
42964;SDS011;28604;51.204;22.552;2023-07-28T07:31:49;3.60;;;1.10;;
42964;SDS011;28604;51.204;22.552;2023-07-28T07:36:53;1.70;;;1.13;;
42964;SDS011;28604;51.204;22.552;2023-07-28T07:39:21;2.53;;;1.42;;
42964;SDS011;28604;51.204;22.552;2023-07-28T07:41:47;1.40;;;0.98;;
42964;SDS011;28604;51.204;22.552;2023-07-28T07:44:13;2.55;;;1.02;;
42964;SDS011;28604;51.204;22.552;2023-07-28T07:46:39;2.08;;;1.30;;
42964;SDS011;28604;51.204;22.552;2023-07-28T07:49:05;1.30;;;1.27;;
42964;SDS011;28604;51.204;22.552;2023-07-28T07:51:31;0.88;;;0.88;;
42964;SDS011;28604;51.204;22.552;2023-07-28T07:53:59;1.20;;;1.20;;
42964;SDS011;28604;51.204;22.552;2023-07-28T07:56:28;2.85;;;1.30;;
42964;SDS011;28604;51.204;22.552;2023-07-28T07:58:55;4.45;;;1.30;;
42964;SDS011;28604;51.204;22.552;2023-07-28T08:01:20;1.20;;;0.90;;
42964;SDS011;28604;51.204;22.552;2023-07-28T08:03:47;1.00;;;1.00;;
42964;SDS011;28604;51.204;22.552;2023-07-28T08:06:14;1.95;;;0.90;;
42964;SDS011;28604;51.204;22.552;2023-07-28T08:08:40;1.45;;;1.10;;
42964;SDS011;28604;51.204;22.552;2023-07-28T08:11:06;2.70;;;0.85;;
42964;SDS011;28604;51.204;22.552;2023-07-28T08:13:33;1.27;;;0.68;;
42964;SDS011;28604;51.204;22.552;2023-07-28T08:15:58;1.83;;;1.10;;
42964;SDS011;28604;51.204;22.552;2023-07-28T08:18:25;1.15;;;1.00;;
42964;SDS011;28604;51.204;22.552;2023-07-28T08:20:50;1.35;;;1.30;;
42964;SDS011;28604;51.204;22.552;2023-07-28T08:23:16;1.75;;;1.08;;
42964;SDS011;28604;51.204;22.552;2023-07-28T08:25:42;1.65;;;1.10;;
42964;SDS011;28604;51.204;22.552;2023-07-28T08:28:08;1.52;;;1.13;;
42964;SDS011;28604;51.204;22.552;2023-07-28T08:30:34;3.97;;;1.10;;
42964;SDS011;28604;51.204;22.552;2023-07-28T08:33:00;4.55;;;1.77;;
42964;SDS011;28604;51.204;22.552;2023-07-28T08:35:27;1.08;;;1.08;;
42964;SDS011;28604;51.204;22.552;2023-07-28T08:37:53;2.47;;;0.95;;
42964;SDS011;28604;51.204;22.552;2023-07-28T08:40:19;1.38;;;1.20;;
42964;SDS011;28604;51.204;22.552;2023-07-28T08:42:45;1.15;;;1.08;;
42964;SDS011;28604;51.204;22.552;2023-07-28T08:45:11;1.50;;;1.15;;
42964;SDS011;28604;51.204;22.552;2023-07-28T08:47:38;4.65;;;1.80;;
42964;SDS011;28604;51.204;22.552;2023-07-28T08:50:04;1.67;;;1.35;;
42964;SDS011;28604;51.204;22.552;2023-07-28T08:52:34;5.70;;;1.55;;
42964;SDS011;28604;51.204;22.552;2023-07-28T08:55:00;4.57;;;1.45;;
42964;SDS011;28604;51.204;22.552;2023-07-28T08:57:26;6.63;;;1.88;;
42964;SDS011;28604;51.204;22.552;2023-07-28T08:59:54;3.88;;;1.65;;
42964;SDS011;28604;51.204;22.552;2023-07-28T09:02:20;4.78;;;1.33;;
42964;SDS011;28604;51.204;22.552;2023-07-28T09:04:47;1.73;;;1.33;;
42964;SDS011;28604;51.204;22.552;2023-07-28T09:07:14;4.75;;;1.23;;
42964;SDS011;28604;51.204;22.552;2023-07-28T09:09:40;5.10;;;1.48;;
42964;SDS011;28604;51.204;22.552;2023-07-28T09:12:06;2.33;;;1.20;;
42964;SDS011;28604;51.204;22.552;2023-07-28T09:14:37;8.48;;;1.38;;
42964;SDS011;28604;51.204;22.552;2023-07-28T09:17:10;2.92;;;1.20;;
42964;SDS011;28604;51.204;22.552;2023-07-28T09:19:49;2.22;;;1.25;;
42964;SDS011;28604;51.204;22.552;2023-07-28T09:22:22;1.60;;;1.50;;
42964;SDS011;28604;51.204;22.552;2023-07-28T09:24:48;2.53;;;2.33;;
42964;SDS011;28604;51.204;22.552;2023-07-28T09:27:19;3.92;;;1.50;;
42964;SDS011;28604;51.204;22.552;2023-07-28T09:29:52;1.13;;;1.13;;
42964;SDS011;28604;51.204;22.552;2023-07-28T09:32:30;1.98;;;1.00;;
42964;SDS011;28604;51.204;22.552;2023-07-28T09:35:11;1.77;;;0.93;;
42964;SDS011;28604;51.204;22.552;2023-07-28T09:37:42;1.05;;;0.95;;
42964;SDS011;28604;51.204;22.552;2023-07-28T09:40:13;2.50;;;1.13;;
42964;SDS011;28604;51.204;22.552;2023-07-28T09:45:20;1.75;;;1.58;;
42964;SDS011;28604;51.204;22.552;2023-07-28T09:47:47;7.80;;;1.58;;
42964;SDS011;28604;51.204;22.552;2023-07-28T09:50:18;5.60;;;1.25;;
42964;SDS011;28604;51.204;22.552;2023-07-28T09:52:50;1.65;;;1.50;;
42964;SDS011;28604;51.204;22.552;2023-07-28T09:55:19;1.55;;;1.05;;
42964;SDS011;28604;51.204;22.552;2023-07-28T09:57:46;1.00;;;0.90;;
42964;SDS011;28604;51.204;22.552;2023-07-28T10:00:17;1.17;;;0.88;;
42964;SDS011;28604;51.204;22.552;2023-07-28T10:02:45;8.52;;;1.75;;
42964;SDS011;28604;51.204;22.552;2023-07-28T10:05:12;1.83;;;1.65;;
42964;SDS011;28604;51.204;22.552;2023-07-28T10:07:41;2.65;;;1.63;;
42964;SDS011;28604;51.204;22.552;2023-07-28T10:10:12;2.90;;;1.42;;
42964;SDS011;28604;51.204;22.552;2023-07-28T10:12:40;6.50;;;1.60;;
42964;SDS011;28604;51.204;22.552;2023-07-28T10:15:07;2.50;;;1.60;;
42964;SDS011;28604;51.204;22.552;2023-07-28T10:17:37;4.45;;;1.80;;
42964;SDS011;28604;51.204;22.552;2023-07-28T10:20:03;4.65;;;2.00;;
42964;SDS011;28604;51.204;22.552;2023-07-28T10:22:43;5.70;;;1.63;;
42964;SDS011;28604;51.204;22.552;2023-07-28T10:25:12;1.88;;;1.77;;
42964;SDS011;28604;51.204;22.552;2023-07-28T10:27:50;1.65;;;1.55;;
42964;SDS011;28604;51.204;22.552;2023-07-28T10:30:27;1.55;;;1.45;;
42964;SDS011;28604;51.204;22.552;2023-07-28T10:32:54;4.53;;;1.58;;
42964;SDS011;28604;51.204;22.552;2023-07-28T10:35:25;7.75;;;2.40;;
42964;SDS011;28604;51.204;22.552;2023-07-28T10:37:55;5.55;;;2.15;;
42964;SDS011;28604;51.204;22.552;2023-07-28T10:40:22;1.80;;;1.55;;
42964;SDS011;28604;51.204;22.552;2023-07-28T10:42:48;6.78;;;2.30;;
42964;SDS011;28604;51.204;22.552;2023-07-28T10:45:15;2.25;;;2.15;;
42964;SDS011;28604;51.204;22.552;2023-07-28T10:47:41;2.50;;;1.92;;
42964;SDS011;28604;51.204;22.552;2023-07-28T10:50:11;5.20;;;2.17;;
42964;SDS011;28604;51.204;22.552;2023-07-28T10:52:41;2.65;;;2.15;;
42964;SDS011;28604;51.204;22.552;2023-07-28T10:55:14;5.30;;;2.33;;
42964;SDS011;28604;51.204;22.552;2023-07-28T10:57:46;2.38;;;2.10;;
42964;SDS011;28604;51.204;22.552;2023-07-28T11:00:15;5.60;;;1.83;;
42964;SDS011;28604;51.204;22.552;2023-07-28T11:05:28;2.45;;;2.25;;
42964;SDS011;28604;51.204;22.552;2023-07-28T11:07:56;3.13;;;1.83;;
42964;SDS011;28604;51.204;22.552;2023-07-28T11:10:23;5.35;;;2.03;;
42964;SDS011;28604;51.204;22.552;2023-07-28T11:12:51;2.83;;;2.00;;
42964;SDS011;28604;51.204;22.552;2023-07-28T11:15:18;3.67;;;2.03;;
42964;SDS011;28604;51.204;22.552;2023-07-28T11:17:45;3.53;;;1.73;;
42964;SDS011;28604;51.204;22.552;2023-07-28T11:22:53;4.68;;;1.45;;
42964;SDS011;28604;51.204;22.552;2023-07-28T11:25:23;1.13;;;1.05;;
42964;SDS011;28604;51.204;22.552;2023-07-28T11:27:50;1.67;;;1.05;;
42964;SDS011;28604;51.204;22.552;2023-07-28T11:30:17;1.85;;;1.40;;
42964;SDS011;28604;51.204;22.552;2023-07-28T11:32:45;1.33;;;1.33;;
42964;SDS011;28604;51.204;22.552;2023-07-28T11:35:13;2.25;;;2.05;;
42964;SDS011;28604;51.204;22.552;2023-07-28T11:37:45;1.10;;;0.98;;
42964;SDS011;28604;51.204;22.552;2023-07-28T11:40:14;1.52;;;1.30;;
42964;SDS011;28604;51.204;22.552;2023-07-28T11:42:45;3.55;;;1.60;;
42964;SDS011;28604;51.204;22.552;2023-07-28T11:45:16;2.45;;;1.10;;
42964;SDS011;28604;51.204;22.552;2023-07-28T11:47:57;1.98;;;1.67;;
42964;SDS011;28604;51.204;22.552;2023-07-28T11:50:28;2.92;;;1.52;;
42964;SDS011;28604;51.204;22.552;2023-07-28T11:52:58;2.80;;;1.50;;
42964;SDS011;28604;51.204;22.552;2023-07-28T11:55:25;1.60;;;1.50;;
42964;SDS011;28604;51.204;22.552;2023-07-28T11:57:52;2.20;;;1.67;;
42964;SDS011;28604;51.204;22.552;2023-07-28T12:00:19;1.33;;;1.20;;
42964;SDS011;28604;51.204;22.552;2023-07-28T12:03:05;2.35;;;1.38;;
42964;SDS011;28604;51.204;22.552;2023-07-28T12:05:35;2.70;;;1.27;;
42964;SDS011;28604;51.204;22.552;2023-07-28T12:08:03;1.67;;;1.58;;
42964;SDS011;28604;51.204;22.552;2023-07-28T12:10:29;4.28;;;1.58;;
42964;SDS011;28604;51.204;22.552;2023-07-28T12:12:57;2.33;;;1.55;;
42964;SDS011;28604;51.204;22.552;2023-07-28T12:15:30;5.18;;;1.42;;
42964;SDS011;28604;51.204;22.552;2023-07-28T12:18:03;1.20;;;1.08;;
42964;SDS011;28604;51.204;22.552;2023-07-28T12:20:34;1.38;;;1.27;;
42964;SDS011;28604;51.204;22.552;2023-07-28T12:23:01;1.95;;;1.40;;
42964;SDS011;28604;51.204;22.552;2023-07-28T12:25:27;1.67;;;1.58;;
42964;SDS011;28604;51.204;22.552;2023-07-28T12:27:53;6.10;;;1.80;;
42964;SDS011;28604;51.204;22.552;2023-07-28T12:30:19;1.50;;;1.45;;
42964;SDS011;28604;51.204;22.552;2023-07-28T12:32:45;4.13;;;1.40;;
42964;SDS011;28604;51.204;22.552;2023-07-28T12:35:11;2.20;;;1.52;;
42964;SDS011;28604;51.204;22.552;2023-07-28T12:37:37;5.47;;;1.98;;
42964;SDS011;28604;51.204;22.552;2023-07-28T12:40:04;1.70;;;1.60;;
42964;SDS011;28604;51.204;22.552;2023-07-28T12:42:32;1.90;;;1.80;;
42964;SDS011;28604;51.204;22.552;2023-07-28T12:44:57;2.40;;;1.75;;
42964;SDS011;28604;51.204;22.552;2023-07-28T12:47:24;4.45;;;1.95;;
42964;SDS011;28604;51.204;22.552;2023-07-28T12:49:49;2.05;;;1.92;;
42964;SDS011;28604;51.204;22.552;2023-07-28T12:52:15;4.90;;;1.83;;
42964;SDS011;28604;51.204;22.552;2023-07-28T12:54:41;2.60;;;2.20;;
42964;SDS011;28604;51.204;22.552;2023-07-28T12:57:08;1.67;;;1.60;;
42964;SDS011;28604;51.204;22.552;2023-07-28T12:59:36;1.58;;;1.52;;
42964;SDS011;28604;51.204;22.552;2023-07-28T13:02:02;2.63;;;1.75;;
42964;SDS011;28604;51.204;22.552;2023-07-28T13:04:29;1.48;;;1.35;;
42964;SDS011;28604;51.204;22.552;2023-07-28T13:06:55;1.55;;;1.45;;
42964;SDS011;28604;51.204;22.552;2023-07-28T13:09:21;1.63;;;1.50;;
42964;SDS011;28604;51.204;22.552;2023-07-28T13:11:47;1.55;;;1.55;;
42964;SDS011;28604;51.204;22.552;2023-07-28T13:14:12;2.58;;;1.30;;
42964;SDS011;28604;51.204;22.552;2023-07-28T13:16:38;1.63;;;1.63;;
42964;SDS011;28604;51.204;22.552;2023-07-28T13:19:04;1.45;;;1.35;;
42964;SDS011;28604;51.204;22.552;2023-07-28T13:21:31;1.52;;;1.52;;
42964;SDS011;28604;51.204;22.552;2023-07-28T13:23:57;0.90;;;0.90;;
42964;SDS011;28604;51.204;22.552;2023-07-28T13:26:23;1.63;;;1.52;;
42964;SDS011;28604;51.204;22.552;2023-07-28T13:28:50;2.17;;;1.45;;
42964;SDS011;28604;51.204;22.552;2023-07-28T13:31:17;1.60;;;1.60;;
42964;SDS011;28604;51.204;22.552;2023-07-28T13:33:44;1.55;;;1.10;;
42964;SDS011;28604;51.204;22.552;2023-07-28T13:36:11;1.65;;;1.60;;
42964;SDS011;28604;51.204;22.552;2023-07-28T13:38:37;7.25;;;1.55;;
42964;SDS011;28604;51.204;22.552;2023-07-28T13:41:04;2.60;;;1.80;;
42964;SDS011;28604;51.204;22.552;2023-07-28T13:43:31;2.20;;;2.10;;
42964;SDS011;28604;51.204;22.552;2023-07-28T13:45:58;1.35;;;1.25;;
42964;SDS011;28604;51.204;22.552;2023-07-28T13:48:24;2.60;;;1.10;;
42964;SDS011;28604;51.204;22.552;2023-07-28T13:50:50;1.77;;;1.20;;
42964;SDS011;28604;51.204;22.552;2023-07-28T13:53:16;1.48;;;1.38;;
42964;SDS011;28604;51.204;22.552;2023-07-28T13:55:42;1.30;;;1.30;;
42964;SDS011;28604;51.204;22.552;2023-07-28T13:58:08;1.13;;;1.13;;
42964;SDS011;28604;51.204;22.552;2023-07-28T14:00:34;1.48;;;1.30;;
42964;SDS011;28604;51.204;22.552;2023-07-28T14:03:00;1.83;;;1.73;;
42964;SDS011;28604;51.204;22.552;2023-07-28T14:05:26;1.25;;;1.25;;
42964;SDS011;28604;51.204;22.552;2023-07-28T14:07:52;1.83;;;1.50;;
42964;SDS011;28604;51.204;22.552;2023-07-28T14:10:18;1.70;;;1.60;;
42964;SDS011;28604;51.204;22.552;2023-07-28T14:12:44;1.55;;;1.45;;
42964;SDS011;28604;51.204;22.552;2023-07-28T14:15:10;1.83;;;1.75;;
42964;SDS011;28604;51.204;22.552;2023-07-28T14:17:36;2.17;;;1.90;;
42964;SDS011;28604;51.204;22.552;2023-07-28T14:20:02;1.83;;;1.73;;
42964;SDS011;28604;51.204;22.552;2023-07-28T14:22:28;2.38;;;2.28;;
42964;SDS011;28604;51.204;22.552;2023-07-28T14:24:54;2.45;;;2.33;;
42964;SDS011;28604;51.204;22.552;2023-07-28T14:27:20;2.80;;;2.63;;
42964;SDS011;28604;51.204;22.552;2023-07-28T14:29:46;2.92;;;2.80;;
42964;SDS011;28604;51.204;22.552;2023-07-28T14:32:12;3.10;;;2.90;;
42964;SDS011;28604;51.204;22.552;2023-07-28T14:34:38;3.08;;;2.80;;
42964;SDS011;28604;51.204;22.552;2023-07-28T14:37:04;2.92;;;2.72;;
42964;SDS011;28604;51.204;22.552;2023-07-28T14:39:33;3.15;;;2.80;;
42964;SDS011;28604;51.204;22.552;2023-07-28T14:41:59;3.65;;;3.05;;
42964;SDS011;28604;51.204;22.552;2023-07-28T14:44:26;3.70;;;3.00;;
42964;SDS011;28604;51.204;22.552;2023-07-28T14:46:51;2.60;;;2.50;;
42964;SDS011;28604;51.204;22.552;2023-07-28T14:49:18;3.50;;;3.28;;
42964;SDS011;28604;51.204;22.552;2023-07-28T14:51:43;2.85;;;2.75;;